Terminal Aerodrome Forecast
Issued by NWS

Home | Current Version | Previous Version | Text Only | Print | Product List | Glossary On
Versions: 1 2 3 4 5 6 7 8 9 10 11 12 13 14 15 16 17 18 19 20 21 22 23 24
810
FTUS43 KGRB 241124
TAFMTW
TAF
KMTW 241124Z 2412/2512 03008KT 3SM -SHRA BR OVC004
      TEMPO 2412/2416 1SM -SHRA BR OVC002
     FM241600 04010KT 3SM -SHRA BR OVC004
     FM242100 04010G18KT P6SM BKN020
     FM250800 01008KT 5SM BR BKN010=

USA.gov is the U.S. government's official web portal to all federal, state and local government web resources and services.